sensor_id;sensor_type;location;lat;lon;timestamp;pressure;altitude;pressure_sealevel;temperature;humidity
43683;BME280;29285;52.128;21.060;2023-07-31T00:00:54;99711.33;;;19.97;100.00
43683;BME280;29285;52.128;21.060;2023-07-31T00:06:01;99713.02;;;19.94;100.00
43683;BME280;29285;52.128;21.060;2023-07-31T00:11:02;99706.05;;;19.88;100.00
43683;BME280;29285;52.128;21.060;2023-07-31T00:16:04;99708.91;;;19.79;100.00
43683;BME280;29285;52.128;21.060;2023-07-31T00:21:06;99717.48;;;19.66;100.00
43683;BME280;29285;52.128;21.060;2023-07-31T00:26:08;99720.10;;;19.52;100.00
43683;BME280;29285;52.128;21.060;2023-07-31T00:31:10;99720.01;;;19.49;100.00
43683;BME280;29285;52.128;21.060;2023-07-31T00:36:12;99712.57;;;19.52;100.00
43683;BME280;29285;52.128;21.060;2023-07-31T00:41:13;99707.57;;;19.61;100.00
43683;BME280;29285;52.128;21.060;2023-07-31T00:46:15;99705.14;;;19.61;100.00
43683;BME280;29285;52.128;21.060;2023-07-31T00:51:17;99703.95;;;19.55;100.00
43683;BME280;29285;52.128;21.060;2023-07-31T00:56:19;99708.29;;;19.39;100.00
43683;BME280;29285;52.128;21.060;2023-07-31T01:01:21;99710.26;;;19.30;100.00
43683;BME280;29285;52.128;21.060;2023-07-31T01:06:56;99711.90;;;19.23;100.00
43683;BME280;29285;52.128;21.060;2023-07-31T01:12:03;99705.44;;;19.22;100.00
43683;BME280;29285;52.128;21.060;2023-07-31T01:17:05;99714.64;;;19.18;100.00
43683;BME280;29285;52.128;21.060;2023-07-31T01:27:48;99719.06;;;19.09;100.00
43683;BME280;29285;52.128;21.060;2023-07-31T01:32:52;99715.70;;;19.12;100.00
43683;BME280;29285;52.128;21.060;2023-07-31T01:37:56;99715.92;;;19.15;100.00
43683;BME280;29285;52.128;21.060;2023-07-31T01:42:58;99724.44;;;18.98;100.00
43683;BME280;29285;52.128;21.060;2023-07-31T01:48:00;99729.17;;;18.78;100.00
43683;BME280;29285;52.128;21.060;2023-07-31T01:53:02;99727.99;;;18.62;100.00
43683;BME280;29285;52.128;21.060;2023-07-31T01:58:04;99732.28;;;18.49;100.00
43683;BME280;29285;52.128;21.060;2023-07-31T02:03:06;99735.27;;;18.46;100.00
43683;BME280;29285;52.128;21.060;2023-07-31T02:08:08;99731.09;;;18.43;100.00
43683;BME280;29285;52.128;21.060;2023-07-31T02:13:10;99734.48;;;18.35;100.00
43683;BME280;29285;52.128;21.060;2023-07-31T02:18:12;99728.86;;;18.32;100.00
43683;BME280;29285;52.128;21.060;2023-07-31T02:23:14;99731.26;;;18.27;100.00
43683;BME280;29285;52.128;21.060;2023-07-31T02:28:15;99742.65;;;18.21;100.00
43683;BME280;29285;52.128;21.060;2023-07-31T02:33:17;99745.90;;;18.29;100.00
43683;BME280;29285;52.128;21.060;2023-07-31T02:38:19;99747.65;;;18.29;100.00
43683;BME280;29285;52.128;21.060;2023-07-31T02:43:23;99752.16;;;18.27;100.00
43683;BME280;29285;52.128;21.060;2023-07-31T02:48:24;99757.39;;;18.25;100.00
43683;BME280;29285;52.128;21.060;2023-07-31T02:53:26;99756.48;;;18.19;100.00
43683;BME280;29285;52.128;21.060;2023-07-31T02:58:28;99747.85;;;18.22;100.00
43683;BME280;29285;52.128;21.060;2023-07-31T03:03:30;99743.49;;;18.28;100.00
43683;BME280;29285;52.128;21.060;2023-07-31T03:08:31;99749.77;;;18.35;100.00
43683;BME280;29285;52.128;21.060;2023-07-31T03:13:33;99751.89;;;18.40;100.00
43683;BME280;29285;52.128;21.060;2023-07-31T03:18:36;99742.84;;;18.46;100.00
43683;BME280;29285;52.128;21.060;2023-07-31T03:23:38;99746.16;;;18.46;100.00
43683;BME280;29285;52.128;21.060;2023-07-31T03:28:40;99746.45;;;18.44;100.00
43683;BME280;29285;52.128;21.060;2023-07-31T03:33:42;99753.77;;;18.45;100.00
43683;BME280;29285;52.128;21.060;2023-07-31T03:38:45;99765.55;;;18.54;100.00
43683;BME280;29285;52.128;21.060;2023-07-31T03:43:49;99765.95;;;18.62;100.00
43683;BME280;29285;52.128;21.060;2023-07-31T03:48:53;99768.42;;;18.71;100.00
43683;BME280;29285;52.128;21.060;2023-07-31T03:53:55;99768.04;;;18.74;100.00
43683;BME280;29285;52.128;21.060;2023-07-31T03:58:56;99774.77;;;18.76;100.00
43683;BME280;29285;52.128;21.060;2023-07-31T04:03:58;99778.76;;;18.74;100.00
43683;BME280;29285;52.128;21.060;2023-07-31T04:09:01;99781.38;;;18.77;100.00
43683;BME280;29285;52.128;21.060;2023-07-31T04:14:03;99781.30;;;18.79;100.00
43683;BME280;29285;52.128;21.060;2023-07-31T04:19:05;99789.55;;;18.76;100.00
43683;BME280;29285;52.128;21.060;2023-07-31T04:24:07;99793.90;;;18.71;100.00
43683;BME280;29285;52.128;21.060;2023-07-31T04:29:09;99794.06;;;18.64;100.00
43683;BME280;29285;52.128;21.060;2023-07-31T04:34:11;99800.71;;;18.69;100.00
43683;BME280;29285;52.128;21.060;2023-07-31T04:39:13;99803.95;;;18.67;100.00
43683;BME280;29285;52.128;21.060;2023-07-31T04:44:14;99810.80;;;18.76;100.00
43683;BME280;29285;52.128;21.060;2023-07-31T04:49:16;99814.20;;;18.69;100.00
43683;BME280;29285;52.128;21.060;2023-07-31T04:54:18;99812.17;;;18.79;100.00
43683;BME280;29285;52.128;21.060;2023-07-31T04:59:19;99811.38;;;18.90;100.00
43683;BME280;29285;52.128;21.060;2023-07-31T05:04:21;99811.92;;;18.93;100.00
43683;BME280;29285;52.128;21.060;2023-07-31T05:09:23;99811.05;;;18.93;100.00
43683;BME280;29285;52.128;21.060;2023-07-31T05:14:25;99812.85;;;18.89;100.00
43683;BME280;29285;52.128;21.060;2023-07-31T05:19:27;99818.13;;;18.92;100.00
43683;BME280;29285;52.128;21.060;2023-07-31T05:24:29;99818.95;;;18.87;100.00
43683;BME280;29285;52.128;21.060;2023-07-31T05:29:31;99819.55;;;18.80;100.00
43683;BME280;29285;52.128;21.060;2023-07-31T05:34:33;99818.46;;;18.71;100.00
43683;BME280;29285;52.128;21.060;2023-07-31T05:39:35;99824.72;;;18.63;100.00
43683;BME280;29285;52.128;21.060;2023-07-31T05:44:37;99835.74;;;18.55;100.00
43683;BME280;29285;52.128;21.060;2023-07-31T05:49:39;99838.86;;;18.49;100.00
43683;BME280;29285;52.128;21.060;2023-07-31T05:54:41;99850.30;;;18.49;100.00
43683;BME280;29285;52.128;21.060;2023-07-31T05:59:43;99850.30;;;18.55;100.00
43683;BME280;29285;52.128;21.060;2023-07-31T06:04:45;99849.55;;;18.59;100.00
43683;BME280;29285;52.128;21.060;2023-07-31T06:09:47;99856.70;;;18.72;100.00
43683;BME280;29285;52.128;21.060;2023-07-31T06:14:49;99863.23;;;18.78;100.00
43683;BME280;29285;52.128;21.060;2023-07-31T06:19:51;99867.91;;;18.76;100.00
43683;BME280;29285;52.128;21.060;2023-07-31T06:24:53;99867.90;;;18.73;100.00
43683;BME280;29285;52.128;21.060;2023-07-31T06:29:55;99862.63;;;18.70;100.00
43683;BME280;29285;52.128;21.060;2023-07-31T06:34:57;99863.38;;;18.66;100.00
43683;BME280;29285;52.128;21.060;2023-07-31T06:39:58;99866.09;;;18.59;100.00
43683;BME280;29285;52.128;21.060;2023-07-31T06:45:01;99874.56;;;18.61;100.00
43683;BME280;29285;52.128;21.060;2023-07-31T06:50:04;99875.71;;;18.75;100.00
43683;BME280;29285;52.128;21.060;2023-07-31T06:55:20;99874.96;;;18.78;100.00
43683;BME280;29285;52.128;21.060;2023-07-31T07:00:22;99878.99;;;18.85;100.00
43683;BME280;29285;52.128;21.060;2023-07-31T07:05:24;99887.12;;;18.81;100.00
43683;BME280;29285;52.128;21.060;2023-07-31T07:10:26;99879.52;;;18.88;100.00
43683;BME280;29285;52.128;21.060;2023-07-31T07:15:28;99876.88;;;19.10;100.00
43683;BME280;29285;52.128;21.060;2023-07-31T07:20:30;99880.02;;;19.10;100.00
43683;BME280;29285;52.128;21.060;2023-07-31T07:25:32;99883.39;;;19.28;100.00
43683;BME280;29285;52.128;21.060;2023-07-31T07:30:33;99891.61;;;19.40;100.00
43683;BME280;29285;52.128;21.060;2023-07-31T07:35:36;99889.67;;;19.46;100.00
43683;BME280;29285;52.128;21.060;2023-07-31T07:40:41;99886.28;;;19.68;100.00
43683;BME280;29285;52.128;21.060;2023-07-31T07:45:43;99882.58;;;19.91;100.00
43683;BME280;29285;52.128;21.060;2023-07-31T07:50:44;99883.34;;;20.13;100.00
43683;BME280;29285;52.128;21.060;2023-07-31T07:55:46;99880.17;;;20.19;100.00
43683;BME280;29285;52.128;21.060;2023-07-31T08:00:50;99885.48;;;20.24;100.00
43683;BME280;29285;52.128;21.060;2023-07-31T08:05:52;99886.13;;;20.33;100.00
43683;BME280;29285;52.128;21.060;2023-07-31T08:10:54;99881.55;;;20.47;100.00
43683;BME280;29285;52.128;21.060;2023-07-31T08:15:56;99874.63;;;20.48;100.00
43683;BME280;29285;52.128;21.060;2023-07-31T08:20:58;99875.29;;;20.43;100.00
43683;BME280;29285;52.128;21.060;2023-07-31T08:25:59;99871.73;;;20.49;100.00
43683;BME280;29285;52.128;21.060;2023-07-31T08:31:01;99868.45;;;20.64;100.00
43683;BME280;29285;52.128;21.060;2023-07-31T08:36:03;99870.13;;;20.74;100.00
43683;BME280;29285;52.128;21.060;2023-07-31T08:41:05;99865.55;;;20.79;100.00
43683;BME280;29285;52.128;21.060;2023-07-31T08:46:07;99865.59;;;20.90;100.00
43683;BME280;29285;52.128;21.060;2023-07-31T08:51:10;99869.59;;;20.96;100.00
43683;BME280;29285;52.128;21.060;2023-07-31T08:56:13;99868.40;;;21.11;100.00
43683;BME280;29285;52.128;21.060;2023-07-31T09:01:16;99863.13;;;21.21;100.00
43683;BME280;29285;52.128;21.060;2023-07-31T09:06:20;99864.77;;;21.42;100.00
43683;BME280;29285;52.128;21.060;2023-07-31T09:11:23;99866.38;;;21.59;100.00
43683;BME280;29285;52.128;21.060;2023-07-31T09:16:28;99870.27;;;21.69;100.00
43683;BME280;29285;52.128;21.060;2023-07-31T09:21:33;99872.39;;;21.72;100.00
43683;BME280;29285;52.128;21.060;2023-07-31T09:26:36;99866.40;;;21.79;100.00
43683;BME280;29285;52.128;21.060;2023-07-31T09:31:40;99869.89;;;21.90;100.00
43683;BME280;29285;52.128;21.060;2023-07-31T09:36:47;99871.33;;;21.95;100.00
43683;BME280;29285;52.128;21.060;2023-07-31T09:41:56;99866.56;;;22.02;100.00
43683;BME280;29285;52.128;21.060;2023-07-31T09:46:57;99870.48;;;22.04;100.00
43683;BME280;29285;52.128;21.060;2023-07-31T09:51:59;99867.42;;;22.07;100.00
43683;BME280;29285;52.128;21.060;2023-07-31T09:57:01;99865.55;;;22.14;100.00
43683;BME280;29285;52.128;21.060;2023-07-31T10:02:04;99857.80;;;22.16;100.00
43683;BME280;29285;52.128;21.060;2023-07-31T10:07:06;99857.17;;;22.23;100.00
43683;BME280;29285;52.128;21.060;2023-07-31T10:12:11;99855.30;;;22.39;100.00
43683;BME280;29285;52.128;21.060;2023-07-31T10:17:16;99845.51;;;22.47;100.00
43683;BME280;29285;52.128;21.060;2023-07-31T10:22:20;99855.77;;;22.47;100.00
43683;BME280;29285;52.128;21.060;2023-07-31T10:27:22;99850.77;;;22.48;100.00
43683;BME280;29285;52.128;21.060;2023-07-31T10:32:24;99844.68;;;22.59;100.00
43683;BME280;29285;52.128;21.060;2023-07-31T10:37:37;99846.19;;;22.68;100.00
43683;BME280;29285;52.128;21.060;2023-07-31T10:42:50;99847.98;;;22.76;100.00
43683;BME280;29285;52.128;21.060;2023-07-31T10:48:01;99851.41;;;22.83;100.00
43683;BME280;29285;52.128;21.060;2023-07-31T10:53:04;99846.84;;;23.01;100.00
43683;BME280;29285;52.128;21.060;2023-07-31T11:03:15;99844.37;;;23.29;100.00
43683;BME280;29285;52.128;21.060;2023-07-31T11:08:22;99847.54;;;23.32;100.00
43683;BME280;29285;52.128;21.060;2023-07-31T11:13:24;99841.17;;;23.41;100.00
43683;BME280;29285;52.128;21.060;2023-07-31T11:18:27;99840.83;;;23.53;100.00
43683;BME280;29285;52.128;21.060;2023-07-31T11:23:29;99842.33;;;23.56;100.00
43683;BME280;29285;52.128;21.060;2023-07-31T11:28:32;99830.13;;;23.58;100.00
43683;BME280;29285;52.128;21.060;2023-07-31T11:33:35;99828.52;;;23.61;100.00
43683;BME280;29285;52.128;21.060;2023-07-31T11:38:37;99837.15;;;23.54;100.00
43683;BME280;29285;52.128;21.060;2023-07-31T11:43:39;99840.00;;;23.54;100.00
43683;BME280;29285;52.128;21.060;2023-07-31T11:48:40;99833.87;;;23.60;100.00
43683;BME280;29285;52.128;21.060;2023-07-31T11:53:45;99828.20;;;23.83;100.00
43683;BME280;29285;52.128;21.060;2023-07-31T11:58:53;99826.77;;;23.85;100.00
43683;BME280;29285;52.128;21.060;2023-07-31T12:03:56;99823.23;;;23.76;100.00
43683;BME280;29285;52.128;21.060;2023-07-31T12:09:05;99824.76;;;23.68;100.00
43683;BME280;29285;52.128;21.060;2023-07-31T12:14:07;99822.77;;;23.55;100.00
43683;BME280;29285;52.128;21.060;2023-07-31T12:19:09;99822.95;;;23.44;100.00
43683;BME280;29285;52.128;21.060;2023-07-31T12:24:11;99823.93;;;23.47;100.00
43683;BME280;29285;52.128;21.060;2023-07-31T12:29:13;99821.57;;;23.48;100.00
43683;BME280;29285;52.128;21.060;2023-07-31T12:34:19;99814.27;;;23.41;100.00
43683;BME280;29285;52.128;21.060;2023-07-31T12:39:23;99809.91;;;23.38;100.00
43683;BME280;29285;52.128;21.060;2023-07-31T12:44:25;99802.38;;;23.39;100.00
43683;BME280;29285;52.128;21.060;2023-07-31T12:49:27;99799.14;;;23.38;100.00
43683;BME280;29285;52.128;21.060;2023-07-31T12:54:29;99792.45;;;23.44;100.00
43683;BME280;29285;52.128;21.060;2023-07-31T12:59:31;99792.23;;;23.45;100.00
43683;BME280;29285;52.128;21.060;2023-07-31T13:04:32;99789.52;;;23.46;100.00
43683;BME280;29285;52.128;21.060;2023-07-31T13:09:35;99782.88;;;23.53;100.00
43683;BME280;29285;52.128;21.060;2023-07-31T13:14:36;99775.92;;;23.50;100.00
43683;BME280;29285;52.128;21.060;2023-07-31T13:19:38;99776.45;;;23.59;100.00
43683;BME280;29285;52.128;21.060;2023-07-31T13:24:41;99763.73;;;23.63;100.00
43683;BME280;29285;52.128;21.060;2023-07-31T13:29:43;99759.34;;;23.67;100.00
43683;BME280;29285;52.128;21.060;2023-07-31T13:34:46;99746.58;;;23.96;100.00
43683;BME280;29285;52.128;21.060;2023-07-31T13:39:49;99742.18;;;24.35;100.00
43683;BME280;29285;52.128;21.060;2023-07-31T13:44:51;99740.52;;;24.66;100.00
43683;BME280;29285;52.128;21.060;2023-07-31T13:49:53;99741.40;;;24.91;100.00
43683;BME280;29285;52.128;21.060;2023-07-31T13:54:54;99735.55;;;24.55;100.00
43683;BME280;29285;52.128;21.060;2023-07-31T13:59:56;99737.84;;;24.34;100.00
43683;BME280;29285;52.128;21.060;2023-07-31T14:04:58;99731.37;;;24.15;100.00
43683;BME280;29285;52.128;21.060;2023-07-31T14:10:00;99732.63;;;24.11;100.00
43683;BME280;29285;52.128;21.060;2023-07-31T14:15:02;99729.14;;;23.99;100.00
43683;BME280;29285;52.128;21.060;2023-07-31T14:20:05;99731.23;;;23.84;100.00
43683;BME280;29285;52.128;21.060;2023-07-31T14:25:08;99729.60;;;23.67;100.00
43683;BME280;29285;52.128;21.060;2023-07-31T14:30:11;99726.34;;;23.59;100.00
43683;BME280;29285;52.128;21.060;2023-07-31T14:35:13;99721.35;;;23.61;100.00
43683;BME280;29285;52.128;21.060;2023-07-31T14:40:15;99712.79;;;23.74;100.00
43683;BME280;29285;52.128;21.060;2023-07-31T14:45:17;99707.02;;;23.90;100.00
43683;BME280;29285;52.128;21.060;2023-07-31T14:50:20;99700.94;;;24.19;100.00
43683;BME280;29285;52.128;21.060;2023-07-31T14:55:22;99699.27;;;24.37;100.00
43683;BME280;29285;52.128;21.060;2023-07-31T15:00:24;99695.36;;;24.22;100.00
43683;BME280;29285;52.128;21.060;2023-07-31T15:05:26;99698.45;;;23.95;100.00
43683;BME280;29285;52.128;21.060;2023-07-31T15:10:27;99693.25;;;23.81;100.00
43683;BME280;29285;52.128;21.060;2023-07-31T15:15:29;99692.91;;;23.74;100.00
43683;BME280;29285;52.128;21.060;2023-07-31T15:20:32;99693.23;;;23.72;100.00
43683;BME280;29285;52.128;21.060;2023-07-31T15:25:34;99684.85;;;23.64;100.00
43683;BME280;29285;52.128;21.060;2023-07-31T15:30:36;99677.98;;;23.64;100.00
43683;BME280;29285;52.128;21.060;2023-07-31T15:35:39;99678.02;;;23.68;100.00
43683;BME280;29285;52.128;21.060;2023-07-31T15:40:41;99677.29;;;23.70;100.00
43683;BME280;29285;52.128;21.060;2023-07-31T15:45:42;99675.18;;;23.68;100.00
43683;BME280;29285;52.128;21.060;2023-07-31T15:50:44;99674.52;;;23.56;100.00
43683;BME280;29285;52.128;21.060;2023-07-31T15:55:47;99669.95;;;23.45;100.00
43683;BME280;29285;52.128;21.060;2023-07-31T16:00:49;99671.31;;;23.32;100.00
43683;BME280;29285;52.128;21.060;2023-07-31T16:05:51;99664.62;;;23.22;100.00
43683;BME280;29285;52.128;21.060;2023-07-31T16:10:53;99660.10;;;23.17;100.00
43683;BME280;29285;52.128;21.060;2023-07-31T16:15:54;99656.41;;;23.17;100.00
43683;BME280;29285;52.128;21.060;2023-07-31T16:20:56;99650.79;;;23.11;100.00
43683;BME280;29285;52.128;21.060;2023-07-31T16:25:58;99648.72;;;23.08;100.00
43683;BME280;29285;52.128;21.060;2023-07-31T16:31:00;99649.46;;;23.08;100.00
43683;BME280;29285;52.128;21.060;2023-07-31T16:36:02;99646.34;;;23.05;100.00
43683;BME280;29285;52.128;21.060;2023-07-31T16:41:05;99647.76;;;23.05;100.00
43683;BME280;29285;52.128;21.060;2023-07-31T16:46:06;99648.80;;;23.05;100.00
43683;BME280;29285;52.128;21.060;2023-07-31T16:51:08;99646.99;;;23.03;100.00
43683;BME280;29285;52.128;21.060;2023-07-31T16:56:10;99648.70;;;22.99;100.00
43683;BME280;29285;52.128;21.060;2023-07-31T17:01:11;99644.92;;;22.98;100.00
43683;BME280;29285;52.128;21.060;2023-07-31T17:06:13;99648.33;;;22.93;100.00
43683;BME280;29285;52.128;21.060;2023-07-31T17:11:15;99648.69;;;22.91;100.00
43683;BME280;29285;52.128;21.060;2023-07-31T17:16:18;99648.95;;;22.92;100.00
43683;BME280;29285;52.128;21.060;2023-07-31T17:21:20;99656.81;;;22.95;100.00
43683;BME280;29285;52.128;21.060;2023-07-31T17:26:22;99661.90;;;22.92;100.00
43683;BME280;29285;52.128;21.060;2023-07-31T17:31:24;99663.45;;;22.87;100.00
43683;BME280;29285;52.128;21.060;2023-07-31T17:36:27;99667.28;;;22.88;100.00
43683;BME280;29285;52.128;21.060;2023-07-31T17:41:29;99670.61;;;22.86;100.00
43683;BME280;29285;52.128;21.060;2023-07-31T17:46:32;99671.90;;;22.83;100.00
43683;BME280;29285;52.128;21.060;2023-07-31T17:51:34;99682.42;;;22.82;100.00
43683;BME280;29285;52.128;21.060;2023-07-31T17:56:37;99692.91;;;22.79;100.00
43683;BME280;29285;52.128;21.060;2023-07-31T18:01:39;99698.88;;;22.73;100.00
43683;BME280;29285;52.128;21.060;2023-07-31T18:06:41;99705.69;;;22.65;100.00
43683;BME280;29285;52.128;21.060;2023-07-31T18:11:42;99711.31;;;22.55;100.00
43683;BME280;29285;52.128;21.060;2023-07-31T18:16:44;99708.73;;;22.49;100.00
43683;BME280;29285;52.128;21.060;2023-07-31T18:21:46;99707.64;;;22.45;100.00
43683;BME280;29285;52.128;21.060;2023-07-31T18:26:47;99709.91;;;22.34;100.00
43683;BME280;29285;52.128;21.060;2023-07-31T18:31:49;99710.33;;;22.21;100.00
43683;BME280;29285;52.128;21.060;2023-07-31T18:36:51;99703.83;;;22.09;100.00
43683;BME280;29285;52.128;21.060;2023-07-31T18:41:53;99700.74;;;21.95;100.00
43683;BME280;29285;52.128;21.060;2023-07-31T18:46:55;99698.83;;;21.85;100.00
43683;BME280;29285;52.128;21.060;2023-07-31T18:51:57;99702.97;;;21.79;100.00
43683;BME280;29285;52.128;21.060;2023-07-31T18:56:58;99704.88;;;21.75;100.00
43683;BME280;29285;52.128;21.060;2023-07-31T19:02:00;99709.90;;;21.71;100.00
43683;BME280;29285;52.128;21.060;2023-07-31T19:07:02;99709.17;;;21.64;100.00
43683;BME280;29285;52.128;21.060;2023-07-31T19:12:06;99711.09;;;21.54;100.00
43683;BME280;29285;52.128;21.060;2023-07-31T19:17:08;99707.25;;;21.51;100.00
43683;BME280;29285;52.128;21.060;2023-07-31T19:22:09;99705.88;;;21.45;100.00
43683;BME280;29285;52.128;21.060;2023-07-31T19:27:12;99703.18;;;21.36;100.00
43683;BME280;29285;52.128;21.060;2023-07-31T19:32:13;99710.99;;;21.28;100.00
43683;BME280;29285;52.128;21.060;2023-07-31T19:37:16;99706.66;;;21.22;100.00
43683;BME280;29285;52.128;21.060;2023-07-31T19:42:18;99708.83;;;21.16;100.00
43683;BME280;29285;52.128;21.060;2023-07-31T19:47:19;99713.50;;;21.10;100.00
43683;BME280;29285;52.128;21.060;2023-07-31T19:52:21;99717.84;;;21.03;100.00
43683;BME280;29285;52.128;21.060;2023-07-31T19:57:23;99718.26;;;20.97;100.00
43683;BME280;29285;52.128;21.060;2023-07-31T20:02:25;99715.44;;;20.94;100.00
43683;BME280;29285;52.128;21.060;2023-07-31T20:07:27;99710.60;;;20.96;100.00
43683;BME280;29285;52.128;21.060;2023-07-31T20:12:29;99711.84;;;20.95;100.00
43683;BME280;29285;52.128;21.060;2023-07-31T20:17:30;99715.36;;;20.90;100.00
43683;BME280;29285;52.128;21.060;2023-07-31T20:22:33;99711.77;;;20.88;100.00
43683;BME280;29285;52.128;21.060;2023-07-31T20:27:35;99702.36;;;20.87;100.00
43683;BME280;29285;52.128;21.060;2023-07-31T20:32:37;99698.31;;;20.87;100.00
43683;BME280;29285;52.128;21.060;2023-07-31T20:37:38;99687.92;;;20.87;100.00
43683;BME280;29285;52.128;21.060;2023-07-31T20:42:40;99675.20;;;20.95;100.00
43683;BME280;29285;52.128;21.060;2023-07-31T20:47:42;99665.11;;;20.98;100.00
43683;BME280;29285;52.128;21.060;2023-07-31T20:52:46;99655.92;;;21.01;100.00
43683;BME280;29285;52.128;21.060;2023-07-31T20:57:47;99648.67;;;21.09;100.00
43683;BME280;29285;52.128;21.060;2023-07-31T21:02:49;99639.59;;;21.10;100.00
43683;BME280;29285;52.128;21.060;2023-07-31T21:07:51;99632.46;;;21.09;100.00
43683;BME280;29285;52.128;21.060;2023-07-31T21:12:52;99631.88;;;20.97;100.00
43683;BME280;29285;52.128;21.060;2023-07-31T21:17:54;99629.36;;;20.85;100.00
43683;BME280;29285;52.128;21.060;2023-07-31T21:22:58;99626.14;;;20.78;100.00
43683;BME280;29285;52.128;21.060;2023-07-31T21:28:02;99623.75;;;20.64;100.00
43683;BME280;29285;52.128;21.060;2023-07-31T21:33:04;99625.08;;;20.55;100.00
43683;BME280;29285;52.128;21.060;2023-07-31T21:38:06;99618.92;;;20.49;100.00
43683;BME280;29285;52.128;21.060;2023-07-31T21:43:10;99615.83;;;20.43;100.00
43683;BME280;29285;52.128;21.060;2023-07-31T21:48:11;99610.46;;;20.31;100.00
43683;BME280;29285;52.128;21.060;2023-07-31T21:53:13;99606.10;;;20.12;100.00
43683;BME280;29285;52.128;21.060;2023-07-31T21:58:15;99603.63;;;19.96;100.00
43683;BME280;29285;52.128;21.060;2023-07-31T22:03:17;99596.31;;;19.89;100.00
43683;BME280;29285;52.128;21.060;2023-07-31T22:08:19;99585.64;;;19.94;100.00
43683;BME280;29285;52.128;21.060;2023-07-31T22:13:21;99579.27;;;19.94;100.00
43683;BME280;29285;52.128;21.060;2023-07-31T22:18:23;99580.00;;;19.86;100.00
43683;BME280;29285;52.128;21.060;2023-07-31T22:23:24;99579.61;;;19.68;100.00
43683;BME280;29285;52.128;21.060;2023-07-31T22:28:26;99572.46;;;19.53;100.00
43683;BME280;29285;52.128;21.060;2023-07-31T22:33:28;99574.27;;;19.47;100.00
43683;BME280;29285;52.128;21.060;2023-07-31T22:38:30;99574.52;;;19.38;100.00
43683;BME280;29285;52.128;21.060;2023-07-31T22:43:33;99573.24;;;19.27;100.00
43683;BME280;29285;52.128;21.060;2023-07-31T22:48:35;99572.87;;;19.20;100.00
43683;BME280;29285;52.128;21.060;2023-07-31T22:53:37;99570.24;;;19.16;100.00
43683;BME280;29285;52.128;21.060;2023-07-31T22:58:39;99568.98;;;19.14;100.00
43683;BME280;29285;52.128;21.060;2023-07-31T23:03:41;99565.77;;;19.07;100.00
43683;BME280;29285;52.128;21.060;2023-07-31T23:08:43;99564.19;;;19.04;100.00
43683;BME280;29285;52.128;21.060;2023-07-31T23:13:45;99558.68;;;18.96;100.00
43683;BME280;29285;52.128;21.060;2023-07-31T23:18:46;99553.02;;;18.94;100.00
43683;BME280;29285;52.128;21.060;2023-07-31T23:23:48;99550.86;;;18.91;100.00
43683;BME280;29285;52.128;21.060;2023-07-31T23:28:50;99551.64;;;18.90;100.00
43683;BME280;29285;52.128;21.060;2023-07-31T23:33:51;99552.25;;;18.95;100.00
43683;BME280;29285;52.128;21.060;2023-07-31T23:38:53;99558.95;;;18.95;100.00
43683;BME280;29285;52.128;21.060;2023-07-31T23:43:58;99554.39;;;19.00;100.00
43683;BME280;29285;52.128;21.060;2023-07-31T23:49:00;99549.66;;;19.03;100.00
43683;BME280;29285;52.128;21.060;2023-07-31T23:54:02;99547.51;;;18.98;100.00
43683;BME280;29285;52.128;21.060;2023-07-31T23:59:04;99534.70;;;18.97;100.00
